Time;durP1;ratioP1;P1;durP2;ratioP2;P2;SDS_P1;SDS_P2;PMS_P1;PMS_P2;Temp;Humidity;BMP_temperature;BMP_pressure;BME280_temperature;BME280_humidity;BME280_pressure;Samples;Min_cycle;Max_cycle;Signal;HPM_P1;HPM_P2
2023/01/25 00:00:29;;;;;;;38.03;23.27;;;;;;;0.41;78.90;103344.75;5116459;28;20275;-68
2023/01/25 00:02:56;;;;;;;36.57;24.67;;;;;;;0.43;78.21;103340.34;5116957;28;20192;-68
2023/01/25 00:05:23;;;;;;;48.07;24.03;;;;;;;0.42;77.62;103342.09;5116579;28;20212;-68
2023/01/25 00:07:49;;;;;;;40.70;24.43;;;;;;;0.36;77.67;103343.78;5116562;28;20201;-68
2023/01/25 00:10:16;;;;;;;40.70;25.07;;;;;;;0.30;78.17;103336.69;5116788;28;20249;-68
2023/01/25 00:12:42;;;;;;;36.90;25.17;;;;;;;0.30;79.07;103344.59;5116133;28;20205;-68
2023/01/25 00:15:09;;;;;;;39.13;25.03;;;;;;;0.35;77.13;103339.38;5116210;28;20182;-68
2023/01/25 00:17:36;;;;;;;41.70;23.67;;;;;;;0.36;78.26;103336.78;5116319;28;20189;-68
2023/01/25 00:20:02;;;;;;;46.00;25.57;;;;;;;0.29;78.21;103329.66;5116089;28;20197;-68
2023/01/25 00:22:29;;;;;;;48.63;24.60;;;;;;;0.24;78.80;103330.44;5115947;28;20201;-69
2023/01/25 00:24:56;;;;;;;43.33;25.07;;;;;;;0.28;77.50;103329.63;5116046;28;20256;-69
2023/01/25 00:27:22;;;;;;;37.47;23.93;;;;;;;0.26;79.14;103323.44;5115872;28;20670;-68
2023/01/25 00:29:48;;;;;;;40.10;24.27;;;;;;;0.17;79.14;103327.75;5098501;28;20225;-68
2023/01/25 00:32:15;;;;;;;38.03;24.83;;;;;;;0.25;79.28;103329.59;5115740;28;20211;-68
2023/01/25 00:34:51;;;;;;;39.80;25.07;;;;;;;0.20;78.57;103317.22;5115783;28;20193;-68
2023/01/25 00:37:27;;;;;;;38.90;24.53;;;;;;;0.21;77.97;103312.84;5097483;28;20197;-68
2023/01/25 00:39:56;;;;;;;42.03;24.77;;;;;;;0.11;78.82;103313.59;5097533;28;20218;-68
2023/01/25 00:42:22;;;;;;;44.63;25.47;;;;;;;0.08;78.37;103303.03;5115662;28;20273;-68
2023/01/25 00:44:49;;;;;;;40.27;25.23;;;;;;;0.07;78.67;103304.75;5115670;28;20554;-69
2023/01/25 00:47:16;;;;;;;39.73;24.53;;;;;;;0.15;79.37;103305.75;5115571;28;20205;-68
2023/01/25 00:49:43;;;;;;;37.83;25.50;;;;;;;0.14;78.47;103296.06;5097222;28;20303;-68
2023/01/25 00:52:11;;;;;;;38.47;24.97;;;;;;;0.19;78.06;103298.75;5097105;28;20682;-68
2023/01/25 00:54:38;;;;;;;37.10;24.33;;;;;;;0.08;79.21;103303.03;5097350;28;20596;-68
2023/01/25 00:57:06;;;;;;;37.83;24.60;;;;;;;0.05;78.57;103309.13;5097122;28;20189;-68
2023/01/25 00:59:33;;;;;;;43.30;26.10;;;;;;;0.11;79.29;103305.69;5097736;28;20220;-68
2023/01/25 01:02:00;;;;;;;38.93;24.17;;;;;;;0.13;79.19;103306.59;5096947;28;20733;-68
2023/01/25 01:04:27;;;;;;;39.50;23.33;;;;;;;0.16;78.97;103310.16;5096978;28;20193;-68
2023/01/25 01:06:54;;;;;;;34.50;23.77;;;;;;;0.19;78.52;103304.03;5115454;28;20593;-68
2023/01/25 01:09:22;;;;;;;40.73;24.67;;;;;;;0.21;78.83;103304.94;5115027;28;20241;-68
2023/01/25 01:11:51;;;;;;;36.53;23.60;;;;;;;0.23;78.55;103297.94;5097852;28;20236;-68
2023/01/25 01:14:18;;;;;;;40.47;25.07;;;;;;;0.25;78.18;103300.59;5096832;28;20196;-68
2023/01/25 01:16:45;;;;;;;39.33;23.83;;;;;;;0.29;79.01;103290.13;5114936;28;20185;-68
2023/01/25 01:19:11;;;;;;;38.57;24.07;;;;;;;0.31;78.79;103291.03;5114940;28;20261;-68
2023/01/25 01:21:38;;;;;;;44.37;26.00;;;;;;;0.28;78.40;103287.47;5115684;28;20189;-68
2023/01/25 01:24:04;;;;;;;37.80;24.13;;;;;;;0.26;78.20;103297.09;5114720;28;20199;-68
2023/01/25 01:26:31;;;;;;;42.50;25.33;;;;;;;0.19;79.38;103285.56;5096544;28;20193;-68
2023/01/25 01:28:58;;;;;;;42.17;26.33;;;;;;;0.11;78.41;103293.41;5096404;28;20216;-67
2023/01/25 01:31:25;;;;;;;41.23;26.57;;;;;;;0.16;79.56;103296.97;5096339;28;20197;-67
2023/01/25 01:34:27;;;;;;;41.13;25.67;;;;;;;0.11;79.12;103298.66;5101855;28;20208;-68
2023/01/25 01:36:54;;;;;;;39.23;25.60;;;;;;;0.15;79.49;103299.59;5096583;28;20220;-68
2023/01/25 01:39:21;;;;;;;42.83;26.57;;;;;;;0.14;79.40;103292.53;5096362;28;20270;-68
2023/01/25 01:41:47;;;;;;;38.53;25.67;;;;;;;0.13;79.29;103291.66;5096533;28;20612;-68
2023/01/25 01:44:21;;;;;;;41.60;26.83;;;;;;;0.14;78.35;103295.19;5096167;28;20224;-68
2023/01/25 01:46:55;;;;;;;42.03;26.37;;;;;;;0.16;79.55;103293.47;5096480;28;20192;-68
2023/01/25 01:49:31;;;;;;;39.37;25.30;;;;;;;0.09;78.36;103284.56;5096082;28;20209;-68
2023/01/25 01:52:14;;;;;;;47.53;25.97;;;;;;;0.15;79.51;103284.66;5096255;28;20216;-68
2023/01/25 01:54:48;;;;;;;41.50;26.23;;;;;;;0.13;79.63;103282.88;5096143;28;20540;-68
2023/01/25 01:57:43;;;;;;;45.33;26.40;;;;;;;0.02;79.00;103285.38;5096076;28;20205;-68
2023/01/25 02:00:27;;;;;;;44.50;27.97;;;;;;;-0.01;78.48;103285.31;5095977;28;20259;-68
2023/01/25 02:02:54;;;;;;;45.73;26.90;;;;;;;0.00;78.73;103281.84;5095940;28;20587;-68
2023/01/25 02:05:27;;;;;;;49.17;27.60;;;;;;;0.01;78.82;103291.50;5095836;28;20736;-68
2023/01/25 02:07:54;;;;;;;41.43;26.97;;;;;;;-0.02;79.39;103283.56;5114282;28;20236;-67
2023/01/25 02:10:22;;;;;;;41.57;25.30;;;;;;;-0.06;79.17;103285.25;5095297;28;20667;-68
2023/01/25 02:12:53;;;;;;;39.23;24.00;;;;;;;-0.01;79.41;103285.31;5096200;28;20213;-68
2023/01/25 02:15:19;;;;;;;39.03;25.17;;;;;;;-0.10;80.02;103288.72;5095725;28;20193;-68
2023/01/25 02:17:47;;;;;;;43.43;25.10;;;;;;;-0.20;78.86;103284.19;5095626;28;20223;-68
2023/01/25 02:20:25;;;;;;;41.63;26.17;;;;;;;-0.28;79.77;103278.81;5095604;28;20189;-68
2023/01/25 02:23:05;;;;;;;37.17;24.20;;;;;;;-0.17;78.88;103283.34;5095519;28;20189;-68
2023/01/25 02:25:31;;;;;;;41.53;24.73;;;;;;;-0.15;79.63;103282.50;5095505;28;20188;-68
2023/01/25 02:28:06;;;;;;;40.07;24.63;;;;;;;-0.18;78.88;103282.47;5095418;28;20222;-67
2023/01/25 02:30:33;;;;;;;43.23;25.73;;;;;;;-0.13;78.51;103285.16;5095859;28;20268;-67
2023/01/25 02:32:59;;;;;;;36.43;24.27;;;;;;;-0.14;78.69;103288.69;5113639;28;20204;-68
2023/01/25 02:35:41;;;;;;;40.97;24.47;;;;;;;-0.07;78.33;103288.78;5113689;28;20220;-68
2023/01/25 02:38:10;;;;;;;41.00;25.33;;;;;;;-0.14;78.81;103283.41;5113616;28;20212;-68
2023/01/25 02:41:00;;;;;;;38.63;24.50;;;;;;;-0.03;77.85;103285.28;5095389;28;20195;-68
2023/01/25 02:43:31;;;;;;;44.03;25.73;;;;;;;-0.03;79.35;103280.03;5095409;28;20185;-68
2023/01/25 02:46:10;;;;;;;37.07;24.30;;;;;;;-0.11;79.15;103281.69;5095372;28;20184;-68
2023/01/25 02:48:37;;;;;;;37.37;23.40;;;;;;;-0.14;78.66;103286.03;5113795;28;20207;-67
2023/01/25 02:51:09;;;;;;;45.67;26.70;;;;;;;-0.14;78.55;103286.91;5095271;28;20317;-67
2023/01/25 02:53:38;;;;;;;44.03;25.67;;;;;;;-0.13;79.73;103282.53;5095201;28;20204;-67
2023/01/25 02:56:04;;;;;;;38.60;25.93;;;;;;;-0.11;79.15;103288.72;5095261;28;20308;-68
2023/01/25 02:58:31;;;;;;;43.57;27.27;;;;;;;-0.27;78.96;103282.31;5113527;28;20201;-68
2023/01/25 03:00:58;;;;;;;44.40;26.20;;;;;;;-0.34;80.10;103281.34;5095273;28;20579;-69
2023/01/25 03:03:25;;;;;;;36.50;25.60;;;;;;;-0.30;79.70;103287.56;5095200;28;20237;-69
2023/01/25 03:05:52;;;;;;;38.17;24.40;;;;;;;-0.28;80.56;103278.81;5095195;28;20200;-69
2023/01/25 03:08:18;;;;;;;37.10;24.03;;;;;;;-0.16;79.18;103278.09;5095101;28;20209;-68
2023/01/25 03:10:48;;;;;;;37.87;24.43;;;;;;;-0.22;79.84;103273.66;5095146;28;20606;-68
2023/01/25 03:13:14;;;;;;;39.60;24.97;;;;;;;-0.20;78.80;103271.03;5095076;28;20205;-68
2023/01/25 03:15:40;;;;;;;42.83;26.10;;;;;;;-0.17;79.00;103265.78;5113344;28;20242;-68
2023/01/25 03:18:07;;;;;;;43.67;26.17;;;;;;;-0.19;79.47;103267.53;5094945;28;20248;-68
2023/01/25 03:20:33;;;;;;;43.57;26.83;;;;;;;-0.13;79.19;103259.72;5095097;28;20189;-68
2023/01/25 03:23:00;;;;;;;45.13;26.23;;;;;;;-0.16;79.78;103257.03;5114894;28;20609;-68
2023/01/25 03:25:27;;;;;;;40.70;26.37;;;;;;;-0.17;78.60;103254.38;5098907;28;20189;-68
2023/01/25 03:27:59;;;;;;;39.17;24.73;;;;;;;-0.21;79.86;103250.81;5099211;28;20672;-68
2023/01/25 03:30:26;;;;;;;45.93;28.30;;;;;;;-0.37;80.28;103248.84;5098815;28;20249;-68
2023/01/25 03:32:52;;;;;;;37.27;23.27;;;;;;;-0.33;79.20;103242.75;5098999;28;20208;-68
2023/01/25 03:35:19;;;;;;;39.57;24.57;;;;;;;-0.37;80.55;103243.56;5098763;28;20554;-68
2023/01/25 03:37:46;;;;;;;41.87;25.57;;;;;;;-0.36;80.51;103240.06;5098576;28;20580;-68
2023/01/25 03:40:12;;;;;;;41.83;26.13;;;;;;;-0.40;79.72;103238.28;5098663;28;20223;-68
2023/01/25 03:42:43;;;;;;;39.87;25.17;;;;;;;-0.34;79.57;103228.69;5098837;28;20207;-68
2023/01/25 03:45:13;;;;;;;40.70;24.63;;;;;;;-0.42;80.54;103230.34;5117064;28;20268;-68
2023/01/25 03:47:40;;;;;;;41.83;26.20;;;;;;;-0.37;79.96;103228.66;5115410;28;20193;-68
2023/01/25 03:50:08;;;;;;;44.63;27.80;;;;;;;-0.43;80.23;103229.47;5098430;28;20621;-68
2023/01/25 03:52:40;;;;;;;39.60;24.63;;;;;;;-0.41;79.79;103224.19;5099101;28;20212;-68
2023/01/25 03:55:07;;;;;;;38.90;23.63;;;;;;;-0.42;80.47;103225.06;5098322;28;20200;-68
2023/01/25 03:57:38;;;;;;;38.63;24.90;;;;;;;-0.42;79.97;103230.34;5098405;28;20206;-68
2023/01/25 04:00:05;;;;;;;37.03;24.50;;;;;;;-0.48;79.99;103217.06;5116780;28;20187;-68
2023/01/25 04:02:40;;;;;;;42.87;26.20;;;;;;;-0.50;80.99;103208.31;5116460;28;20164;-68
2023/01/25 04:05:10;;;;;;;35.77;24.07;;;;;;;-0.49;80.90;103202.16;5098109;28;20565;-68
2023/01/25 04:07:37;;;;;;;42.17;26.13;;;;;;;-0.43;80.56;103205.78;5098038;28;20195;-68
2023/01/25 04:10:06;;;;;;;39.97;24.47;;;;;;;-0.43;81.00;103202.25;5098861;28;20193;-68
2023/01/25 04:12:33;;;;;;;41.87;25.10;;;;;;;-0.47;80.03;103192.53;5097922;28;20211;-68
2023/01/25 04:14:59;;;;;;;36.80;24.40;;;;;;;-0.45;79.88;103198.72;5098005;28;20235;-68
2023/01/25 04:17:26;;;;;;;39.33;24.90;;;;;;;-0.53;80.05;103187.19;5097791;28;20651;-68
2023/01/25 04:19:57;;;;;;;42.87;24.67;;;;;;;-0.56;80.75;103177.50;5098169;28;20207;-68
2023/01/25 04:22:29;;;;;;;45.87;26.80;;;;;;;-0.54;81.16;103182.78;5098159;28;20197;-68
2023/01/25 04:24:56;;;;;;;38.63;24.50;;;;;;;-0.52;80.95;103186.34;5097681;28;20283;-68
2023/01/25 04:27:22;;;;;;;35.70;23.70;;;;;;;-0.49;80.55;103192.50;5097944;28;20186;-68
2023/01/25 04:30:04;;;;;;;37.53;23.57;;;;;;;-0.50;80.95;103187.25;5114710;28;20196;-68
2023/01/25 04:32:34;;;;;;;40.67;25.23;;;;;;;-0.37;80.30;103177.75;5097572;28;20212;-67
2023/01/25 04:35:04;;;;;;;44.83;25.20;;;;;;;-0.35;79.69;103176.03;5097375;28;20221;-67
2023/01/25 04:37:30;;;;;;;42.93;24.63;;;;;;;-0.36;79.85;103166.34;5097487;28;20200;-67
2023/01/25 04:39:58;;;;;;;39.67;23.40;;;;;;;-0.32;80.50;103165.53;5115692;28;20280;-67
2023/01/25 04:42:27;;;;;;;40.97;25.33;;;;;;;-0.37;80.62;103164.59;5115913;28;20191;-67
2023/01/25 04:44:55;;;;;;;41.40;25.33;;;;;;;-0.40;80.58;103165.44;5097419;28;20252;-68
2023/01/25 04:47:22;;;;;;;41.43;26.40;;;;;;;-0.38;79.43;103170.72;5097172;28;20193;-68
2023/01/25 04:49:49;;;;;;;39.63;24.73;;;;;;;-0.37;79.91;103164.59;5097516;28;20615;-68
2023/01/25 04:52:19;;;;;;;38.37;24.33;;;;;;;-0.46;80.02;103166.22;5097114;28;20220;-68
2023/01/25 04:54:45;;;;;;;41.37;24.63;;;;;;;-0.46;79.59;103160.09;5097468;28;20656;-68
2023/01/25 04:57:12;;;;;;;43.63;25.43;;;;;;;-0.41;79.32;103168.03;5097853;28;20197;-68
2023/01/25 04:59:41;;;;;;;38.20;23.60;;;;;;;-0.52;80.11;103166.16;5096948;28;20293;-68
2023/01/25 05:02:07;;;;;;;44.43;25.43;;;;;;;-0.55;80.58;103163.50;5097090;28;20274;-68
2023/01/25 05:04:34;;;;;;;47.03;24.97;;;;;;;-0.64;80.24;103166.00;5097013;28;20193;-68
2023/01/25 05:07:00;;;;;;;42.13;25.23;;;;;;;-0.66;80.52;103160.69;5115183;28;20181;-68
2023/01/25 05:09:26;;;;;;;36.43;24.27;;;;;;;-0.62;80.10;103163.38;5096894;28;20247;-68
2023/01/25 05:11:53;;;;;;;40.60;25.77;;;;;;;-0.59;80.12;103174.84;5096878;28;20192;-68
2023/01/25 05:14:34;;;;;;;67.97;25.67;;;;;;;-0.67;80.80;103171.19;5097346;28;20196;-68
2023/01/25 05:17:01;;;;;;;37.63;24.47;;;;;;;-0.59;80.15;103169.56;5097557;28;20538;-68
2023/01/25 05:19:27;;;;;;;46.60;26.73;;;;;;;-0.65;80.82;103167.75;5096554;28;20209;-67
2023/01/25 05:22:06;;;;;;;39.47;24.83;;;;;;;-0.57;80.06;103165.22;5097475;28;20189;-68
2023/01/25 05:24:40;;;;;;;52.83;26.43;;;;;;;-0.58;80.63;103166.06;5096852;28;20192;-68
2023/01/25 05:27:09;;;;;;;40.73;24.57;;;;;;;-0.52;79.75;103170.53;5113745;28;20287;-68
2023/01/25 05:29:58;;;;;;;38.17;25.20;;;;;;;-0.49;79.67;103171.47;5108893;28;20570;-68
2023/01/25 05:32:49;;;;;;;41.23;24.37;;;;;;;-0.55;80.41;103159.97;5097091;28;20216;-68
2023/01/25 05:35:15;;;;;;;38.93;24.47;;;;;;;-0.53;80.25;103169.63;5096303;28;20708;-68
2023/01/25 05:37:42;;;;;;;43.30;25.67;;;;;;;-0.50;80.62;103168.81;5096237;28;20273;-68
2023/01/25 05:40:15;;;;;;;47.40;27.60;;;;;;;-0.56;79.86;103166.09;5096709;28;20651;-68
2023/01/25 05:42:42;;;;;;;45.07;24.77;;;;;;;-0.50;80.61;103172.34;5096492;28;20200;-68
2023/01/25 05:45:14;;;;;;;46.57;24.43;;;;;;;-0.53;80.82;103168.75;5095480;28;20185;-68
2023/01/25 05:47:43;;;;;;;37.10;23.63;;;;;;;-0.66;80.57;103168.59;5096869;28;20208;-68
2023/01/25 05:50:10;;;;;;;38.23;21.57;;;;;;;-0.71;80.80;103172.91;5114333;28;20184;-68
2023/01/25 05:52:47;;;;;;;42.17;22.47;;;;;;;-0.65;80.82;103161.56;5096938;28;20210;-68
2023/01/25 05:55:13;;;;;;;33.50;21.90;;;;;;;-0.67;81.14;103163.28;5096800;28;20580;-68
2023/01/25 05:57:41;;;;;;;36.37;20.83;;;;;;;-0.65;80.63;103159.84;5114130;28;20651;-67
2023/01/25 06:00:08;;;;;;;36.97;21.43;;;;;;;-0.69;80.64;103159.78;5095939;28;20275;-68
2023/01/25 06:02:38;;;;;;;29.03;21.00;;;;;;;-0.74;81.30;103153.53;5114185;28;20176;-68
2023/01/25 06:05:07;;;;;;;34.67;22.57;;;;;;;-0.79;81.25;103157.84;5114101;28;20172;-68
2023/01/25 06:07:35;;;;;;;32.03;22.17;;;;;;;-0.83;81.34;103161.34;5095779;28;20185;-67
2023/01/25 06:10:03;;;;;;;45.07;23.60;;;;;;;-0.77;81.10;103156.13;5096040;28;20187;-68
2023/01/25 06:12:30;;;;;;;37.73;22.87;;;;;;;-0.71;81.45;103159.75;5096494;28;20183;-68
2023/01/25 06:14:57;;;;;;;37.70;21.83;;;;;;;-0.70;81.55;103152.72;5095619;28;20244;-68
2023/01/25 06:17:24;;;;;;;38.70;22.97;;;;;;;-0.67;81.58;103152.78;5096373;28;20196;-68
2023/01/25 06:19:56;;;;;;;45.90;24.60;;;;;;;-0.62;81.54;103156.38;5095686;28;20181;-68
2023/01/25 06:22:34;;;;;;;49.00;24.87;;;;;;;-0.58;81.26;103157.28;5114016;28;20260;-69
2023/01/25 06:25:00;;;;;;;50.10;26.30;;;;;;;-0.59;80.50;103153.78;5113801;28;20180;-68
2023/01/25 06:27:27;;;;;;;39.90;23.70;;;;;;;-0.55;80.84;103166.13;5113667;28;20216;-68
2023/01/25 06:29:53;;;;;;;41.20;24.70;;;;;;;-0.54;80.81;103154.72;5113748;28;20209;-68
2023/01/25 06:32:20;;;;;;;43.53;25.43;;;;;;;-0.54;80.96;103151.22;5113690;28;20190;-68
2023/01/25 06:34:46;;;;;;;41.90;25.40;;;;;;;-0.54;80.74;103151.22;5113644;28;20258;-68
2023/01/25 06:37:19;;;;;;;48.70;26.30;;;;;;;-0.52;81.80;103147.75;5096212;28;20574;-68
2023/01/25 06:39:45;;;;;;;47.07;28.03;;;;;;;-0.47;80.64;103148.69;5113529;28;20654;-68
2023/01/25 06:42:11;;;;;;;53.27;28.27;;;;;;;-0.53;80.14;103151.22;5113687;28;20528;-68
2023/01/25 06:44:38;;;;;;;44.27;27.17;;;;;;;-0.50;80.22;103150.41;5114119;28;20643;-68
2023/01/25 06:47:07;;;;;;;42.50;25.67;;;;;;;-0.53;80.14;103145.94;5113601;28;20198;-69
2023/01/25 06:49:34;;;;;;;45.17;26.67;;;;;;;-0.49;80.80;103153.03;5113442;28;20234;-69
2023/01/25 06:52:00;;;;;;;48.50;27.00;;;;;;;-0.50;80.47;103153.91;5113575;28;20282;-69
2023/01/25 06:54:26;;;;;;;43.03;25.97;;;;;;;-0.51;80.32;103154.75;5113253;28;20200;-68
2023/01/25 06:56:53;;;;;;;47.13;25.80;;;;;;;-0.51;80.10;103153.88;5114946;28;20181;-69
2023/01/25 06:59:19;;;;;;;50.63;27.07;;;;;;;-0.53;80.67;103156.47;5117542;28;20208;-69
2023/01/25 07:01:46;;;;;;;46.63;26.43;;;;;;;-0.56;80.92;103153.81;5117664;28;20187;-69
2023/01/25 07:04:12;;;;;;;42.07;26.47;;;;;;;-0.55;81.08;103160.88;5118100;28;20219;-68
2023/01/25 07:06:39;;;;;;;51.20;29.63;;;;;;;-0.54;80.76;103149.47;5117859;28;20275;-68
2023/01/25 07:09:11;;;;;;;53.90;30.00;;;;;;;-0.63;80.36;103151.97;5117583;28;20219;-68
2023/01/25 07:11:37;;;;;;;57.67;29.80;;;;;;;-0.65;81.28;103151.06;5117487;28;20186;-69
2023/01/25 07:14:04;;;;;;;49.17;29.60;;;;;;;-0.69;81.60;103151.91;5117288;28;20211;-69
2023/01/25 07:16:35;;;;;;;52.40;30.57;;;;;;;-0.67;81.46;103150.13;5117286;28;20195;-68
2023/01/25 07:19:03;;;;;;;53.57;29.27;;;;;;;-0.75;81.51;103155.31;5117749;28;20549;-68
2023/01/25 07:21:30;;;;;;;51.20;28.17;;;;;;;-0.69;81.72;103149.25;5117236;28;20197;-68
2023/01/25 07:24:01;;;;;;;56.73;29.77;;;;;;;-0.73;81.22;103143.06;5117127;28;20668;-68
2023/01/25 07:26:28;;;;;;;50.93;29.93;;;;;;;-0.68;80.97;103148.38;5117464;28;20209;-68
2023/01/25 07:28:56;;;;;;;64.07;34.10;;;;;;;-0.75;80.82;103150.03;5117103;28;20219;-68
2023/01/25 07:31:23;;;;;;;63.40;33.13;;;;;;;-0.77;81.16;103140.34;5116944;28;20657;-68
2023/01/25 07:33:52;;;;;;;57.77;30.97;;;;;;;-0.71;81.76;103145.72;5116928;28;20215;-68
2023/01/25 07:36:19;;;;;;;63.70;31.77;;;;;;;-0.69;81.59;103141.38;5117514;28;20265;-68
2023/01/25 07:38:45;;;;;;;56.00;29.77;;;;;;;-0.76;81.35;103140.38;5116899;28;20210;-68
2023/01/25 07:41:12;;;;;;;51.03;29.80;;;;;;;-0.74;81.86;103137.75;5116876;28;20191;-68
2023/01/25 07:43:38;;;;;;;57.20;29.17;;;;;;;-0.74;81.21;103137.75;5116864;28;20255;-68
2023/01/25 07:46:10;;;;;;;58.23;30.83;;;;;;;-0.76;80.88;103135.13;5098528;28;20190;-68
2023/01/25 07:48:37;;;;;;;48.17;28.97;;;;;;;-0.74;81.06;103136.03;5117216;28;20217;-69
2023/01/25 07:51:11;;;;;;;57.97;31.53;;;;;;;-0.79;81.09;103123.66;5116597;28;20193;-69
2023/01/25 07:53:39;;;;;;;57.93;30.90;;;;;;;-0.81;80.82;103135.91;5116929;28;20203;-69
2023/01/25 07:56:07;;;;;;;52.87;31.27;;;;;;;-0.77;81.21;103124.56;5116816;28;20646;-69
2023/01/25 07:58:33;;;;;;;54.13;30.90;;;;;;;-0.86;81.08;103126.22;5116442;28;20206;-68
2023/01/25 08:01:10;;;;;;;55.87;30.73;;;;;;;-0.82;81.20;103129.75;5116423;28;20199;-68
2023/01/25 08:03:37;;;;;;;52.83;30.00;;;;;;;-0.85;80.89;103132.34;5116401;28;20241;-68
2023/01/25 08:06:04;;;;;;;58.97;31.03;;;;;;;-0.81;81.95;103120.13;5116596;28;20192;-68
2023/01/25 08:08:35;;;;;;;59.43;30.70;;;;;;;-0.82;81.44;103135.03;5115722;28;20568;-68
2023/01/25 08:11:34;;;;;;;64.93;32.33;;;;;;;-0.84;81.06;103125.34;5116346;28;20205;-68
2023/01/25 08:14:02;;;;;;;57.40;32.20;;;;;;;-0.91;82.25;103127.00;5112685;28;20607;-68
2023/01/25 08:16:30;;;;;;;68.67;33.63;;;;;;;-0.86;82.53;103126.22;5116187;28;20283;-68
2023/01/25 08:18:58;;;;;;;64.50;32.53;;;;;;;-0.75;82.16;103118.47;5116142;28;20256;-68
2023/01/25 08:21:29;;;;;;;63.17;32.47;;;;;;;-0.71;81.47;103117.66;5116379;28;20192;-68
2023/01/25 08:23:57;;;;;;;63.17;33.17;;;;;;;-0.81;81.47;103121.03;5115974;28;20201;-68
2023/01/25 08:26:24;;;;;;;59.43;32.17;;;;;;;-0.82;81.65;103123.63;5116237;28;20660;-68
2023/01/25 08:28:52;;;;;;;58.37;30.73;;;;;;;-0.73;82.09;103114.13;5116058;28;20576;-68
2023/01/25 08:31:22;;;;;;;57.07;31.43;;;;;;;-0.73;81.65;103116.75;5116178;28;20194;-68
2023/01/25 08:33:50;;;;;;;65.07;32.07;;;;;;;-0.71;81.77;103109.75;5116287;28;20204;-68
2023/01/25 08:36:17;;;;;;;54.00;30.33;;;;;;;-0.68;82.67;103104.53;5115842;28;20192;-68
2023/01/25 08:38:45;;;;;;;64.17;31.23;;;;;;;-0.77;82.26;103101.78;5115693;28;20686;-68
2023/01/25 08:41:18;;;;;;;62.07;33.37;;;;;;;-0.76;81.57;103111.44;5116051;28;20283;-68
2023/01/25 08:43:45;;;;;;;65.97;32.10;;;;;;;-0.79;81.87;103110.50;5116316;28;20187;-68
2023/01/25 08:46:13;;;;;;;59.00;30.80;;;;;;;-0.72;81.82;103112.38;5116173;28;20187;-68
2023/01/25 08:48:39;;;;;;;60.87;34.63;;;;;;;-0.68;81.42;103103.66;5115427;28;20268;-68
2023/01/25 08:51:14;;;;;;;71.37;34.33;;;;;;;-0.66;82.10;103113.34;5115902;28;20183;-68
2023/01/25 08:53:41;;;;;;;71.13;34.47;;;;;;;-0.66;82.33;103108.06;5115924;28;20294;-68
2023/01/25 08:56:10;;;;;;;63.93;34.57;;;;;;;-0.68;81.95;103099.28;5115737;28;20272;-68
2023/01/25 08:58:43;;;;;;;70.30;40.30;;;;;;;-0.57;81.30;103106.44;5114158;28;20448;-68
2023/01/25 09:01:11;;;;;;;72.67;36.77;;;;;;;-0.61;82.04;103108.13;5115883;28;20181;-68
2023/01/25 09:03:40;;;;;;;65.60;34.40;;;;;;;-0.53;81.99;103100.34;5115237;28;20644;-68
2023/01/25 09:06:07;;;;;;;66.93;34.80;;;;;;;-0.54;81.93;103098.59;5115277;28;20194;-68
2023/01/25 09:08:35;;;;;;;66.63;33.17;;;;;;;-0.51;82.08;103095.97;5115108;28;20208;-68
2023/01/25 09:11:06;;;;;;;68.07;33.20;;;;;;;-0.49;81.71;103099.53;5115076;28;20194;-68
2023/01/25 09:13:32;;;;;;;59.10;32.30;;;;;;;-0.50;81.94;103092.50;5115042;28;20286;-68
2023/01/25 09:16:04;;;;;;;68.80;34.43;;;;;;;-0.45;81.85;103094.31;5114966;28;20191;-68
2023/01/25 09:18:31;;;;;;;59.23;33.80;;;;;;;-0.45;81.35;103085.53;5115211;28;20207;-68
2023/01/25 09:20:58;;;;;;;67.73;35.77;;;;;;;-0.49;80.64;103084.59;5114810;28;20680;-68
2023/01/25 09:23:25;;;;;;;68.17;34.37;;;;;;;-0.46;81.25;103076.75;5114826;28;20569;-68
2023/01/25 09:26:04;;;;;;;64.93;32.47;;;;;;;-0.41;81.41;103081.19;5114786;28;20193;-68
2023/01/25 09:28:32;;;;;;;66.10;34.97;;;;;;;-0.45;81.02;103077.66;5115002;28;20204;-68
2023/01/25 09:31:01;;;;;;;74.77;37.43;;;;;;;-0.49;81.55;103071.44;5114746;28;20181;-68
2023/01/25 09:34:13;;;;;;;67.67;35.30;;;;;;;-0.60;81.45;103069.53;5103814;28;20249;-68
2023/01/25 09:36:39;;;;;;;64.83;33.37;;;;;;;-0.58;81.55;103063.44;5114566;28;20252;-68
2023/01/25 09:39:06;;;;;;;75.40;36.40;;;;;;;-0.58;81.93;103068.69;5114480;28;20276;-68
2023/01/25 09:42:00;;;;;;;75.23;36.03;;;;;;;-0.58;81.15;103065.19;5114521;28;20183;-68
2023/01/25 09:44:51;;;;;;;66.80;33.27;;;;;;;-0.54;80.97;103064.38;5114824;28;20175;-68
2023/01/25 09:47:28;;;;;;;69.00;35.23;;;;;;;-0.59;81.26;103058.16;5115000;28;20263;-68
2023/01/25 09:50:20;;;;;;;68.63;36.53;;;;;;;-0.69;81.12;103060.69;5114367;28;20180;-68
2023/01/25 09:53:14;;;;;;;73.03;34.80;;;;;;;-0.74;81.57;103065.00;5114866;28;20180;-68
2023/01/25 09:55:42;;;;;;;65.70;33.33;;;;;;;-0.73;81.66;103066.75;5114321;28;20280;-68
2023/01/25 09:58:18;;;;;;;79.47;37.10;;;;;;;-0.63;81.55;103066.88;5095880;28;20215;-68
2023/01/25 10:00:49;;;;;;;65.03;34.10;;;;;;;-0.75;81.56;103064.97;5114569;28;20628;-68
2023/01/25 10:03:37;;;;;;;75.67;35.97;;;;;;;-0.68;81.67;103059.81;5114430;28;20187;-68
2023/01/25 10:06:04;;;;;;;68.47;33.87;;;;;;;-0.58;81.62;103055.53;5114111;28;20171;-68
2023/01/25 10:08:35;;;;;;;76.27;34.30;;;;;;;-0.63;81.23;103059.00;5114156;28;20215;-68
2023/01/25 10:11:23;;;;;;;63.73;33.23;;;;;;;-0.57;82.23;103061.72;5114319;28;20180;-68
2023/01/25 10:13:50;;;;;;;66.70;33.87;;;;;;;-0.51;81.79;103057.38;5114238;28;20556;-68
2023/01/25 10:16:27;;;;;;;72.13;33.87;;;;;;;-0.51;81.49;103056.50;5113983;28;20188;-68
2023/01/25 10:19:17;;;;;;;73.87;35.67;;;;;;;-0.48;81.27;103056.53;5113847;28;20213;-68
2023/01/25 10:21:53;;;;;;;75.27;35.97;;;;;;;-0.54;81.41;103051.22;5114189;28;20195;-68
2023/01/25 10:25:05;;;;;;;79.83;37.30;;;;;;;-0.56;82.42;103053.81;5113841;28;20189;-69
2023/01/25 10:28:05;;;;;;;76.67;37.53;;;;;;;-0.56;81.21;103051.19;5103388;28;20300;-68
2023/01/25 10:30:53;;;;;;;75.90;36.30;;;;;;;-0.53;81.29;103051.22;5113989;28;20173;-68
2023/01/25 10:33:20;;;;;;;88.80;37.10;;;;;;;-0.50;81.85;103038.13;5114178;28;20192;-68
2023/01/25 10:35:48;;;;;;;80.27;36.17;;;;;;;-0.50;80.84;103032.84;5095460;28;20251;-68
2023/01/25 10:38:24;;;;;;;80.30;36.30;;;;;;;-0.54;81.23;103033.66;5114130;28;20294;-68
2023/01/25 10:41:01;;;;;;;75.83;37.10;;;;;;;-0.57;81.82;103025.75;5113872;28;20194;-68
2023/01/25 10:43:27;;;;;;;74.43;37.30;;;;;;;-0.56;81.76;103024.88;5114589;28;20559;-68
2023/01/25 10:45:54;;;;;;;82.37;37.10;;;;;;;-0.60;81.59;103009.03;5114157;28;20185;-68
2023/01/25 10:48:28;;;;;;;80.27;38.47;;;;;;;-0.55;81.98;103013.50;5113497;28;20211;-68
2023/01/25 10:50:56;;;;;;;92.10;36.93;;;;;;;-0.52;82.21;103012.66;5113865;28;20237;-69
2023/01/25 10:53:25;;;;;;;72.73;35.40;;;;;;;-0.47;81.58;103011.81;5113516;28;20185;-69
2023/01/25 10:56:23;;;;;;;73.67;35.33;;;;;;;-0.44;81.57;103006.56;5113435;28;20200;-69
2023/01/25 10:58:54;;;;;;;74.10;36.17;;;;;;;-0.47;81.26;102998.66;5113458;28;20211;-69
2023/01/25 11:01:31;;;;;;;77.70;38.37;;;;;;;-0.45;81.65;102994.31;5113855;28;20599;-69
2023/01/25 11:03:58;;;;;;;88.63;39.57;;;;;;;-0.46;81.23;102994.28;5113790;28;20181;-69
2023/01/25 11:06:35;;;;;;;75.50;38.03;;;;;;;-0.49;82.19;102989.84;5113477;28;20262;-69
2023/01/25 11:09:21;;;;;;;85.50;38.33;;;;;;;-0.43;81.90;102983.81;5094934;28;20234;-69
2023/01/25 11:11:56;;;;;;;98.50;38.70;;;;;;;-0.45;81.42;102982.91;5113321;28;20736;-69
2023/01/25 11:14:26;;;;;;;88.97;38.63;;;;;;;-0.54;81.38;102973.13;5113474;28;20210;-69
2023/01/25 11:16:54;;;;;;;84.63;36.90;;;;;;;-0.59;81.21;102969.59;5113558;28;20226;-69
2023/01/25 11:19:23;;;;;;;88.10;38.20;;;;;;;-0.50;81.67;102971.44;5113486;28;20580;-69
2023/01/25 11:21:52;;;;;;;73.70;36.40;;;;;;;-0.56;82.09;102966.09;5113328;28;20211;-69
2023/01/25 11:24:18;;;;;;;77.07;35.07;;;;;;;-0.56;82.24;102958.22;5113141;28;20608;-69
2023/01/25 11:26:45;;;;;;;78.93;37.30;;;;;;;-0.58;82.39;102959.94;5113867;28;20653;-69